createdAt,value
2018-09-28T00:02:18.333Z,2.33
2018-09-28T00:04:46.759Z,2.20
2018-09-28T00:07:15.596Z,2.13
2018-09-28T00:09:44.490Z,2.40
2018-09-28T00:12:13.408Z,2.40
2018-09-28T00:14:42.301Z,2.07
2018-09-28T00:17:10.940Z,1.80
2018-09-28T00:19:39.311Z,1.97
2018-09-28T00:22:07.857Z,2.07
2018-09-28T00:24:36.741Z,2.57
2018-09-28T00:27:05.292Z,1.90
2018-09-28T00:29:33.709Z,2.00
2018-09-28T00:32:02.587Z,1.97
2018-09-28T00:34:31.332Z,1.80
2018-09-28T00:37:00.071Z,1.70
2018-09-28T00:39:28.573Z,1.70
2018-09-28T00:41:57.051Z,1.70
2018-09-28T00:44:25.885Z,1.57
2018-09-28T00:46:54.857Z,2.10
2018-09-28T00:49:23.539Z,2.00
2018-09-28T00:51:52.454Z,1.77
2018-09-28T00:54:20.911Z,1.73
2018-09-28T00:56:49.339Z,1.63
2018-09-28T00:59:18.026Z,1.40
2018-09-28T01:01:46.841Z,1.70
2018-09-28T01:04:15.668Z,2.00
2018-09-28T01:06:44.464Z,1.67
2018-09-28T01:09:14.721Z,2.10
2018-09-28T01:11:43.816Z,1.43
2018-09-28T01:14:12.805Z,1.50
2018-09-28T01:16:41.329Z,1.33
2018-09-28T01:19:10.074Z,1.40
2018-09-28T01:21:38.653Z,1.40
2018-09-28T01:24:07.148Z,1.67
2018-09-28T01:26:35.766Z,1.87
2018-09-28T01:29:04.359Z,1.50
2018-09-28T01:31:32.784Z,1.63
2018-09-28T01:34:01.514Z,1.67
2018-09-28T01:36:30.318Z,2.00
2018-09-28T01:38:58.916Z,1.60
2018-09-28T01:41:27.408Z,1.93
2018-09-28T01:43:55.776Z,1.67
2018-09-28T01:46:24.263Z,2.10
2018-09-28T01:48:52.831Z,1.90
2018-09-28T01:51:21.695Z,2.20
2018-09-28T01:53:50.073Z,1.87
2018-09-28T01:56:18.506Z,1.70
2018-09-28T01:58:46.953Z,1.90
2018-09-28T02:01:15.722Z,1.90
2018-09-28T02:03:44.438Z,1.77
2018-09-28T02:06:13.185Z,1.70
2018-09-28T02:08:41.641Z,1.83
2018-09-28T02:11:10.196Z,1.90
2018-09-28T02:13:38.712Z,1.90
2018-09-28T02:16:07.458Z,1.77
2018-09-28T02:18:35.940Z,2.00
2018-09-28T02:21:04.384Z,1.97
2018-09-28T02:23:32.762Z,1.80
2018-09-28T02:26:01.180Z,2.37
2018-09-28T02:28:29.750Z,1.90
2018-09-28T02:30:58.169Z,2.00
2018-09-28T02:33:26.826Z,1.83
2018-09-28T02:35:55.642Z,2.13
2018-09-28T02:38:24.036Z,2.00
2018-09-28T02:40:52.517Z,1.77
2018-09-28T02:43:21.560Z,1.83
2018-09-28T02:45:50.336Z,1.80
2018-09-28T02:48:19.293Z,1.50
2018-09-28T02:50:48.170Z,1.70
2018-09-28T02:53:18.130Z,1.90
2018-09-28T02:55:48.360Z,2.03
2018-09-28T02:58:16.860Z,1.97
2018-09-28T03:00:46.488Z,2.00
2018-09-28T03:03:15.040Z,1.87
2018-09-28T03:05:43.446Z,1.90
2018-09-28T03:08:12.101Z,1.83
2018-09-28T03:10:40.859Z,1.90
2018-09-28T03:13:09.679Z,2.00
2018-09-28T03:15:38.190Z,2.20
2018-09-28T03:18:07.446Z,2.13
2018-09-28T03:20:35.980Z,2.00
2018-09-28T03:23:04.913Z,2.23
2018-09-28T03:25:33.745Z,2.77
2018-09-28T03:28:02.512Z,2.33
2018-09-28T03:30:31.279Z,2.20
2018-09-28T03:33:00.101Z,2.50
2018-09-28T03:35:29.023Z,2.00
2018-09-28T03:37:57.731Z,2.43
2018-09-28T03:40:26.569Z,2.10
2018-09-28T03:42:54.956Z,2.20
2018-09-28T03:45:23.735Z,2.40
2018-09-28T03:47:52.703Z,2.23
2018-09-28T03:50:21.440Z,2.40
2018-09-28T03:52:50.299Z,2.43
2018-09-28T03:55:18.808Z,2.20
2018-09-28T03:57:47.736Z,2.37
2018-09-28T04:00:16.342Z,2.60
2018-09-28T04:02:45.279Z,2.50
2018-09-28T04:05:14.160Z,2.60
2018-09-28T04:07:42.875Z,2.63
2018-09-28T04:10:11.728Z,2.80
2018-09-28T04:12:40.129Z,2.63
2018-09-28T04:15:09.036Z,3.23
2018-09-28T04:17:37.637Z,2.90
2018-09-28T04:20:06.597Z,2.67
2018-09-28T04:22:35.439Z,3.60
2018-09-28T04:25:04.565Z,3.50
2018-09-28T04:27:33.137Z,3.70
2018-09-28T04:30:01.989Z,3.47
2018-09-28T04:32:36.979Z,3.20
2018-09-28T04:35:05.499Z,3.57
2018-09-28T04:37:34.198Z,3.30
2018-09-28T04:40:03.885Z,3.83
2018-09-28T04:42:32.596Z,3.87
2018-09-28T04:45:01.507Z,3.60
2018-09-28T04:47:30.268Z,3.97
2018-09-28T04:49:59.056Z,3.93
2018-09-28T04:52:27.852Z,4.10
2018-09-28T04:54:56.718Z,6.63
2018-09-28T04:57:25.426Z,5.37
2018-09-28T04:59:54.085Z,4.40
2018-09-28T05:02:29.551Z,4.30
2018-09-28T05:04:58.240Z,4.07
2018-09-28T05:07:27.072Z,6.20
2018-09-28T05:09:55.913Z,4.30
2018-09-28T05:12:24.680Z,5.10
2018-09-28T05:14:53.599Z,4.97
2018-09-28T05:17:22.395Z,5.37
2018-09-28T05:19:51.194Z,5.13
2018-09-28T05:22:20.159Z,5.83
2018-09-28T05:24:49.025Z,5.40
2018-09-28T05:27:17.935Z,5.63
2018-09-28T05:33:36.589Z,8.13
2018-09-28T05:36:05.566Z,9.73
2018-09-28T05:38:34.307Z,10.80
2018-09-28T05:41:03.065Z,11.27
2018-09-28T05:43:31.835Z,11.93
2018-09-28T05:46:00.453Z,11.20
2018-09-28T05:48:29.256Z,10.63
2018-09-28T05:50:58.232Z,12.70
2018-09-28T05:53:27.004Z,11.37
2018-09-28T05:55:55.425Z,11.17
2018-09-28T05:58:29.621Z,11.77
2018-09-28T06:01:03.743Z,10.33
2018-09-28T06:03:32.875Z,11.17
2018-09-28T06:06:02.819Z,13.10
2018-09-28T06:08:32.240Z,10.87
2018-09-28T06:11:01.039Z,12.03
2018-09-28T06:13:29.629Z,11.57
2018-09-28T06:15:58.273Z,11.90
2018-09-28T06:18:27.076Z,12.60
2018-09-28T06:20:55.834Z,11.50
2018-09-28T06:23:24.742Z,10.67
2018-09-28T06:25:53.550Z,10.70
2018-09-28T06:28:22.243Z,10.90
2018-09-28T06:30:51.023Z,11.23
2018-09-28T06:33:19.537Z,10.20
2018-09-28T06:35:48.359Z,10.10
2018-09-28T06:38:17.341Z,9.50
2018-09-28T06:40:46.116Z,9.27
2018-09-28T06:43:14.891Z,8.20
2018-09-28T06:45:43.795Z,8.83
2018-09-28T06:48:12.666Z,9.10
2018-09-28T06:50:41.411Z,8.50
2018-09-28T06:53:10.217Z,9.23
2018-09-28T06:55:39.109Z,10.50
2018-09-28T06:58:07.896Z,9.67
2018-09-28T07:00:36.625Z,9.77
2018-09-28T07:03:05.568Z,10.80
2018-09-28T07:05:34.609Z,10.93
2018-09-28T07:08:03.152Z,12.00
2018-09-28T07:10:31.635Z,11.70
2018-09-28T07:13:00.343Z,12.67
2018-09-28T07:15:29.268Z,10.13
2018-09-28T07:17:58.207Z,10.37
2018-09-28T07:20:27.195Z,7.30
2018-09-28T07:22:55.848Z,6.03
2018-09-28T07:25:24.553Z,9.03
2018-09-28T07:27:53.310Z,7.15
2018-09-28T07:30:22.362Z,6.30
2018-09-28T07:32:51.186Z,6.15
2018-09-28T07:35:19.907Z,5.20
2018-09-28T07:37:48.604Z,5.40
2018-09-28T07:40:17.519Z,6.83
2018-09-28T07:42:46.208Z,5.00
2018-09-28T07:45:15.029Z,6.45
2018-09-28T07:47:43.761Z,7.78
2018-09-28T07:50:12.621Z,5.65
2018-09-28T07:52:41.518Z,5.25
2018-09-28T07:55:10.808Z,4.77
2018-09-28T07:57:39.667Z,4.47
2018-09-28T08:00:08.517Z,5.00
2018-09-28T08:02:37.315Z,5.30
2018-09-28T08:05:06.613Z,5.03
2018-09-28T08:07:35.277Z,4.27
2018-09-28T08:10:04.165Z,6.87
2018-09-28T08:12:33.156Z,6.20
2018-09-28T08:15:01.864Z,6.77
2018-09-28T08:17:30.811Z,4.90
2018-09-28T08:20:00.131Z,3.37
2018-09-28T08:22:29.109Z,3.10
2018-09-28T08:24:57.985Z,2.80
2018-09-28T08:27:26.804Z,2.93
2018-09-28T08:29:55.565Z,3.53
2018-09-28T08:32:24.321Z,3.47
2018-09-28T08:34:53.178Z,2.67
2018-09-28T08:37:22.101Z,3.80
2018-09-28T08:39:50.950Z,3.60
2018-09-28T08:42:19.805Z,3.80
2018-09-28T08:44:48.711Z,2.77
2018-09-28T08:47:17.518Z,2.67
2018-09-28T08:49:46.324Z,4.00
2018-09-28T08:52:15.121Z,2.73
2018-09-28T08:54:43.957Z,2.33
2018-09-28T08:57:12.711Z,2.70
2018-09-28T08:59:41.442Z,3.00
2018-09-28T09:02:10.501Z,2.90
2018-09-28T09:04:39.156Z,2.83
2018-09-28T09:07:08.355Z,2.87
2018-09-28T09:09:37.164Z,3.23
2018-09-28T09:12:05.877Z,2.60
2018-09-28T09:14:34.791Z,2.80
2018-09-28T09:17:03.588Z,3.50
2018-09-28T09:19:32.435Z,3.30
2018-09-28T09:22:01.251Z,2.57
2018-09-28T09:24:35.474Z,2.97
2018-09-28T09:29:58.977Z,2.17
2018-09-28T09:32:27.616Z,4.37
2018-09-28T09:34:56.320Z,2.87
2018-09-28T09:37:24.972Z,4.10
2018-09-28T09:39:53.864Z,4.70
2018-09-28T09:42:23.053Z,4.00
2018-09-28T09:44:51.744Z,3.20
2018-09-28T09:47:20.552Z,3.63
2018-09-28T09:49:49.339Z,3.17
2018-09-28T09:52:18.129Z,2.90
2018-09-28T09:54:46.913Z,3.10
2018-09-28T09:57:15.637Z,2.83
2018-09-28T09:59:44.429Z,2.57
2018-09-28T10:03:22.729Z,3.90
2018-09-28T10:05:51.477Z,3.47
2018-09-28T10:08:20.452Z,3.80
2018-09-28T10:10:49.215Z,2.50
2018-09-28T10:13:18.033Z,5.47
2018-09-28T10:15:47.002Z,3.07
2018-09-28T10:18:15.758Z,6.40
2018-09-28T10:20:44.489Z,4.23
2018-09-28T10:23:13.488Z,4.90
2018-09-28T10:25:42.145Z,20.40
2018-09-28T10:28:11.112Z,6.92
2018-09-28T10:30:39.684Z,3.92
2018-09-28T10:33:08.480Z,13.32
2018-09-28T10:35:37.396Z,3.47
2018-09-28T10:38:06.232Z,3.40
2018-09-28T10:40:35.139Z,7.00
2018-09-28T10:43:03.838Z,4.45
2018-09-28T10:45:32.637Z,6.55
2018-09-28T10:48:01.367Z,8.98
2018-09-28T10:50:30.242Z,5.55
2018-09-28T10:52:58.725Z,5.17
2018-09-28T10:55:27.544Z,8.10
2018-09-28T10:57:56.345Z,5.87
2018-09-28T11:00:25.211Z,5.42
2018-09-28T11:02:53.955Z,3.90
2018-09-28T11:05:22.624Z,3.58
2018-09-28T11:07:51.333Z,3.30
2018-09-28T11:10:20.224Z,2.80
2018-09-28T11:12:49.092Z,2.58
2018-09-28T11:15:17.858Z,2.85
2018-09-28T11:17:46.527Z,2.42
2018-09-28T11:20:15.187Z,3.17
2018-09-28T11:22:43.736Z,2.40
2018-09-28T11:25:12.712Z,2.72
2018-09-28T11:27:41.444Z,2.60
2018-09-28T11:30:10.294Z,2.33
2018-09-28T11:32:39.014Z,2.55
2018-09-28T11:35:07.649Z,2.35
2018-09-28T11:37:36.592Z,2.10
2018-09-28T11:40:05.635Z,2.80
2018-09-28T11:42:34.436Z,2.65
2018-09-28T11:45:03.258Z,2.33
2018-09-28T11:47:32.129Z,2.80
2018-09-28T11:50:00.745Z,2.60
2018-09-28T11:52:29.482Z,2.37
2018-09-28T11:54:58.261Z,2.90
2018-09-28T11:57:27.203Z,2.50
2018-09-28T11:59:56.006Z,2.27
2018-09-28T12:02:24.720Z,2.53
2018-09-28T12:04:53.462Z,2.83
2018-09-28T12:07:22.146Z,2.30
2018-09-28T12:09:50.931Z,2.40
2018-09-28T12:12:19.658Z,2.20
2018-09-28T12:14:48.543Z,2.40
2018-09-28T12:17:17.362Z,2.60
2018-09-28T12:19:46.321Z,3.53
2018-09-28T12:22:15.024Z,3.13
2018-09-28T12:24:43.960Z,2.17
2018-09-28T12:27:12.708Z,2.70
2018-09-28T12:29:41.602Z,2.60
2018-09-28T12:32:10.352Z,2.00
2018-09-28T12:34:39.060Z,2.47
2018-09-28T12:37:08.059Z,2.43
2018-09-28T12:39:37.035Z,2.30
2018-09-28T12:42:05.792Z,2.63
2018-09-28T12:44:34.694Z,2.90
2018-09-28T12:47:03.408Z,2.00
2018-09-28T12:49:32.145Z,2.10
2018-09-28T12:52:00.883Z,2.37
2018-09-28T12:54:29.797Z,2.20
2018-09-28T12:56:58.481Z,2.40
2018-09-28T12:59:27.198Z,2.40
2018-09-28T13:01:56.031Z,2.33
2018-09-28T13:04:24.838Z,2.30
2018-09-28T13:06:53.815Z,2.23
2018-09-28T13:09:22.940Z,3.13
2018-09-28T13:11:51.726Z,2.90
2018-09-28T13:14:20.501Z,3.00
2018-09-28T13:16:49.220Z,3.43
2018-09-28T13:19:18.067Z,2.07
2018-09-28T13:21:46.883Z,2.50
2018-09-28T13:24:15.660Z,2.40
2018-09-28T13:26:44.578Z,2.13
2018-09-28T13:29:13.337Z,2.27
2018-09-28T13:31:42.412Z,2.40
2018-09-28T13:34:11.051Z,2.37
2018-09-28T13:36:40.113Z,2.30
2018-09-28T13:39:09.452Z,3.33
2018-09-28T13:41:38.397Z,2.63
2018-09-28T13:44:07.187Z,2.13
2018-09-28T13:46:36.070Z,2.30
2018-09-28T13:49:04.865Z,2.00
2018-09-28T13:51:33.569Z,2.10
2018-09-28T13:54:02.238Z,2.13
2018-09-28T13:56:31.206Z,1.70
2018-09-28T13:58:59.608Z,2.23
2018-09-28T14:01:28.373Z,2.17
2018-09-28T14:03:57.097Z,2.07
2018-09-28T14:06:25.829Z,2.07
2018-09-28T14:08:54.654Z,2.77
2018-09-28T14:11:23.052Z,2.00
2018-09-28T14:13:51.503Z,2.13
2018-09-28T14:16:20.790Z,2.20
2018-09-28T14:18:49.842Z,2.70
2018-09-28T14:21:18.259Z,2.70
2018-09-28T14:23:47.029Z,2.23
2018-09-28T14:26:16.042Z,1.90
2018-09-28T14:28:44.529Z,1.70
2018-09-28T14:31:12.996Z,1.77
2018-09-28T14:33:41.451Z,2.10
2018-09-28T14:36:09.891Z,1.83
2018-09-28T14:38:38.601Z,1.90
2018-09-28T14:41:07.074Z,2.40
2018-09-28T14:43:35.691Z,1.87
2018-09-28T14:46:04.619Z,2.73
2018-09-28T14:48:33.289Z,1.97
2018-09-28T14:51:01.976Z,2.20
2018-09-28T14:53:30.755Z,2.20
2018-09-28T14:55:59.161Z,2.33
2018-09-28T14:58:27.727Z,2.30
2018-09-28T15:00:56.656Z,1.60
2018-09-28T15:03:25.296Z,1.50
2018-09-28T15:05:54.380Z,2.20
2018-09-28T15:08:23.071Z,2.13
2018-09-28T15:10:51.841Z,1.97
2018-09-28T15:13:20.535Z,2.00
2018-09-28T15:15:49.301Z,1.80
2018-09-28T15:18:17.802Z,1.60
2018-09-28T15:20:46.244Z,1.77
2018-09-28T15:23:15.004Z,2.03
2018-09-28T15:25:43.748Z,1.50
2018-09-28T15:28:12.690Z,2.10
2018-09-28T15:30:41.405Z,2.47
2018-09-28T15:33:09.961Z,2.20
2018-09-28T15:35:38.661Z,2.03
2018-09-28T15:38:07.345Z,2.10
2018-09-28T15:40:36.088Z,2.17
2018-09-28T15:43:04.865Z,1.70
2018-09-28T15:45:34.254Z,2.10
2018-09-28T15:48:02.828Z,1.53
2018-09-28T15:50:31.550Z,1.70
2018-09-28T15:53:00.926Z,3.97
2018-09-28T15:55:29.346Z,2.63
2018-09-28T15:57:58.003Z,2.80
2018-09-28T16:00:26.774Z,1.80
2018-09-28T16:02:55.683Z,1.70
2018-09-28T16:05:24.608Z,2.03
2018-09-28T16:07:53.359Z,1.40
2018-09-28T16:10:22.276Z,2.30
2018-09-28T16:12:50.925Z,2.00
2018-09-28T16:15:19.748Z,1.80
2018-09-28T16:17:48.618Z,1.80
2018-09-28T16:20:17.632Z,2.07
2018-09-28T16:22:46.302Z,3.53
2018-09-28T16:25:15.005Z,2.17
2018-09-28T16:27:43.618Z,2.10
2018-09-28T16:30:12.357Z,1.90
2018-09-28T16:32:40.836Z,2.17
2018-09-28T16:35:09.741Z,2.23
2018-09-28T16:37:38.633Z,1.50
2018-09-28T16:40:07.524Z,2.60
2018-09-28T16:42:36.221Z,2.10
2018-09-28T16:45:04.903Z,2.30
2018-09-28T16:47:33.737Z,2.60
2018-09-28T16:50:02.509Z,7.53
2018-09-28T16:52:31.507Z,2.70
2018-09-28T16:55:00.086Z,2.50
2018-09-28T16:57:28.613Z,2.10
2018-09-28T16:59:57.410Z,2.17
2018-09-28T17:02:25.829Z,2.10
2018-09-28T17:04:54.288Z,1.80
2018-09-28T17:07:22.719Z,1.93
2018-09-28T17:09:51.100Z,2.10
2018-09-28T17:12:19.701Z,2.00
2018-09-28T17:14:48.140Z,2.27
2018-09-28T17:17:17.184Z,3.00
2018-09-28T17:19:46.069Z,1.80
2018-09-28T17:22:14.614Z,1.70
2018-09-28T17:24:42.975Z,2.60
2018-09-28T17:27:11.340Z,2.67
2018-09-28T17:29:39.771Z,2.43
2018-09-28T17:32:08.683Z,2.70
2018-09-28T17:34:37.568Z,2.63
2018-09-28T17:37:06.619Z,1.90
2018-09-28T17:39:35.559Z,2.37
2018-09-28T17:42:04.416Z,2.43
2018-09-28T17:44:33.220Z,2.13
2018-09-28T17:47:01.949Z,2.03
2018-09-28T17:49:30.634Z,2.03
2018-09-28T17:52:00.300Z,2.53
2018-09-28T17:54:29.174Z,2.30
2018-09-28T17:56:57.875Z,2.53
2018-09-28T17:59:26.491Z,3.20
2018-09-28T18:01:55.205Z,2.77
2018-09-28T18:04:24.152Z,2.67
2018-09-28T18:06:53.839Z,2.77
2018-09-28T18:09:22.713Z,2.13
2018-09-28T18:11:51.624Z,2.30
2018-09-28T18:14:20.470Z,2.40
2018-09-28T18:16:49.422Z,2.10
2018-09-28T18:19:18.237Z,2.60
2018-09-28T18:21:46.843Z,3.00
2018-09-28T18:24:15.682Z,2.13
2018-09-28T18:26:44.484Z,2.50
2018-09-28T18:29:13.145Z,2.87
2018-09-28T18:31:44.916Z,2.67
2018-09-28T18:34:14.335Z,2.80
2018-09-28T18:36:43.015Z,3.43
2018-09-28T18:39:11.849Z,3.30
2018-09-28T18:41:40.878Z,3.67
2018-09-28T18:44:09.612Z,2.67
2018-09-28T18:46:38.644Z,2.50
2018-09-28T18:49:07.451Z,3.13
2018-09-28T18:51:36.342Z,3.57
2018-09-28T18:54:05.230Z,2.93
2018-09-28T18:56:33.986Z,4.50
2018-09-28T18:59:02.905Z,4.30
2018-09-28T19:01:31.629Z,7.60
2018-09-28T19:04:00.357Z,10.23
2018-09-28T19:06:28.805Z,12.07
2018-09-28T19:08:57.607Z,16.13
2018-09-28T19:11:26.189Z,17.30
2018-09-28T19:13:54.899Z,16.63
2018-09-28T19:16:23.589Z,15.60
2018-09-28T19:18:52.605Z,14.93
2018-09-28T19:21:21.301Z,12.20
2018-09-28T19:23:50.291Z,9.63
2018-09-28T19:26:18.855Z,8.40
2018-09-28T19:28:47.611Z,7.00
2018-09-28T19:31:16.622Z,7.30
2018-09-28T19:33:45.303Z,7.63
2018-09-28T19:36:13.741Z,7.20
2018-09-28T19:38:42.208Z,8.85
2018-09-28T19:41:10.658Z,9.80
2018-09-28T19:43:39.645Z,8.53
2018-09-28T19:46:08.196Z,8.90
2018-09-28T19:48:36.549Z,9.43
2018-09-28T19:51:05.036Z,6.80
2018-09-28T19:53:33.558Z,6.70
2018-09-28T19:56:02.355Z,5.23
2018-09-28T19:58:30.988Z,7.03
2018-09-28T20:00:59.946Z,5.75
2018-09-28T20:03:28.703Z,5.27
2018-09-28T20:05:57.512Z,5.53
2018-09-28T20:08:26.204Z,4.43
2018-09-28T20:10:54.970Z,4.70
2018-09-28T20:13:29.303Z,4.73
2018-09-28T20:15:57.731Z,4.70
2018-09-28T20:18:26.149Z,4.70
2018-09-28T20:20:55.031Z,6.60
2018-09-28T20:23:23.499Z,5.43
2018-09-28T20:25:51.915Z,5.30
2018-09-28T20:28:20.680Z,5.87
2018-09-28T20:30:49.578Z,5.73
2018-09-28T20:33:18.479Z,6.23
2018-09-28T20:35:47.241Z,5.57
2018-09-28T20:38:16.050Z,4.87
2018-09-28T20:40:45.034Z,4.70
2018-09-28T20:43:13.686Z,4.80
2018-09-28T20:45:42.452Z,36.33
2018-09-28T20:48:11.157Z,26.33
2018-09-28T20:50:40.196Z,6.70
2018-09-28T20:53:08.970Z,5.33
2018-09-28T20:55:37.976Z,5.10
2018-09-28T20:58:06.829Z,4.90
2018-09-28T21:00:35.799Z,4.80
2018-09-28T21:03:04.472Z,4.67
2018-09-28T21:05:33.417Z,4.53
2018-09-28T21:08:02.431Z,4.60
2018-09-28T21:10:31.164Z,3.93
2018-09-28T21:13:00.209Z,4.17
2018-09-28T21:15:29.072Z,3.80
2018-09-28T21:17:57.981Z,3.97
2018-09-28T21:20:27.161Z,3.73
2018-09-28T21:22:56.025Z,4.10
2018-09-28T21:25:24.844Z,4.20
2018-09-28T21:27:53.655Z,5.47
2018-09-28T21:30:22.635Z,5.03
2018-09-28T21:32:51.811Z,3.73
2018-09-28T21:35:20.528Z,4.20
2018-09-28T21:37:49.709Z,3.70
2018-09-28T21:40:19.318Z,3.73
2018-09-28T21:42:49.627Z,14.47
2018-09-28T21:45:18.406Z,8.93
2018-09-28T21:47:48.103Z,3.70
2018-09-28T21:50:19.601Z,3.90
2018-09-28T21:52:52.984Z,3.90
2018-09-28T21:55:22.295Z,3.97
2018-09-28T21:57:51.498Z,4.00
2018-09-28T22:00:20.447Z,5.10
2018-09-28T22:02:49.393Z,5.33
2018-09-28T22:05:18.550Z,5.33
2018-09-28T22:07:48.897Z,4.50
2018-09-28T22:10:17.889Z,3.73
2018-09-28T22:12:46.984Z,3.80
2018-09-28T22:15:16.078Z,3.47
2018-09-28T22:17:44.887Z,3.70
2018-09-28T22:20:14.016Z,3.23
2018-09-28T22:22:42.799Z,3.20
2018-09-28T22:25:11.717Z,3.70
2018-09-28T22:27:40.516Z,3.80
2018-09-28T22:30:09.435Z,3.30
2018-09-28T22:32:38.207Z,2.83
2018-09-28T22:35:07.185Z,3.63
2018-09-28T22:37:36.201Z,3.20
2018-09-28T22:40:05.108Z,3.43
2018-09-28T22:42:33.862Z,3.40
2018-09-28T22:45:02.671Z,3.50
2018-09-28T22:47:31.576Z,4.53
2018-09-28T22:50:00.318Z,4.17
2018-09-28T22:52:29.320Z,3.70
2018-09-28T22:54:58.167Z,3.57
2018-09-28T22:57:27.098Z,3.50
2018-09-28T22:59:57.088Z,3.83
2018-09-28T23:02:25.953Z,3.90
2018-09-28T23:04:54.801Z,3.93
2018-09-28T23:07:23.423Z,4.33
2018-09-28T23:09:52.228Z,4.30
2018-09-28T23:12:21.292Z,4.50
2018-09-28T23:14:50.037Z,4.00
2018-09-28T23:17:18.944Z,3.67
2018-09-28T23:19:47.616Z,4.27
2018-09-28T23:22:16.425Z,3.63
2018-09-28T23:24:45.512Z,3.93
2018-09-28T23:27:14.501Z,4.00
2018-09-28T23:29:43.173Z,3.57
2018-09-28T23:32:12.034Z,4.13
2018-09-28T23:34:40.743Z,3.90
2018-09-28T23:37:09.762Z,3.70
2018-09-28T23:39:38.625Z,4.23
2018-09-28T23:42:07.408Z,4.03
2018-09-28T23:44:36.204Z,4.30
2018-09-28T23:47:05.421Z,6.13
2018-09-28T23:49:34.112Z,5.83
2018-09-28T23:52:03.087Z,6.57
2018-09-28T23:54:32.202Z,5.50
2018-09-28T23:57:01.193Z,4.30
2018-09-28T23:59:30.134Z,4.47
